createdAt,value
2022-08-01T00:00:45.153Z,101304.56
2022-08-01T00:03:50.240Z,101311.50
2022-08-01T00:06:53.861Z,101319.38
2022-08-01T00:09:57.502Z,101311.59
2022-08-01T00:13:01.171Z,101315.09
2022-08-01T00:16:05.016Z,101320.13
2022-08-01T00:19:10.175Z,101316.72
2022-08-01T00:22:13.777Z,101317.47
2022-08-01T00:25:17.495Z,101317.66
2022-08-01T00:28:21.156Z,101313.38
2022-08-01T00:31:24.832Z,101316.91
2022-08-01T00:34:29.843Z,101321.41
2022-08-01T00:37:33.475Z,101323.13
2022-08-01T00:40:37.212Z,101318.78
2022-08-01T00:43:40.898Z,101321.41
2022-08-01T00:46:44.627Z,101318.78
2022-08-01T00:49:49.775Z,101321.59
2022-08-01T00:52:54.079Z,101316.28
2022-08-01T00:55:58.803Z,101320.75
2022-08-01T00:59:02.835Z,101318.19
2022-08-01T01:02:15.597Z,101321.97
2022-08-01T01:05:21.268Z,101329.84
2022-08-01T01:08:34.791Z,101327.28
2022-08-01T01:11:50.896Z,101330.84
2022-08-01T01:15:06.744Z,101330.94
2022-08-01T01:18:16.967Z,101332.56
2022-08-01T01:21:53.140Z,101341.56
2022-08-01T01:25:28.266Z,101342.56
2022-08-01T01:28:43.052Z,101345.97
2022-08-01T01:32:06.270Z,101348.50
2022-08-01T01:35:17.947Z,101352.44
2022-08-01T01:38:27.551Z,101352.25
2022-08-01T01:41:32.983Z,101353.94
2022-08-01T01:44:38.679Z,101350.44
2022-08-01T01:47:46.627Z,101347.88
2022-08-01T01:50:53.486Z,101351.47
2022-08-01T01:53:59.798Z,101348.25
2022-08-01T01:57:07.256Z,101359.78
2022-08-01T02:00:13.999Z,101359.00
2022-08-01T02:03:21.888Z,101356.56
2022-08-01T02:06:29.034Z,101358.47
2022-08-01T02:09:36.150Z,101351.78
2022-08-01T02:12:46.605Z,101360.75
2022-08-01T02:15:59.830Z,101358.19
2022-08-01T02:19:05.863Z,101354.75
2022-08-01T02:22:18.939Z,101352.94
2022-08-01T02:25:28.031Z,101352.19
2022-08-01T02:28:36.815Z,101360.50
2022-08-01T02:31:48.009Z,101358.75
2022-08-01T02:34:55.937Z,101355.94
2022-08-01T02:38:03.280Z,101356.19
2022-08-01T02:41:12.175Z,101365.09
2022-08-01T02:44:29.448Z,101366.88
2022-08-01T02:47:35.226Z,101362.34
2022-08-01T02:50:44.272Z,101365.34
2022-08-01T02:53:50.073Z,101367.19
2022-08-01T02:56:55.689Z,101370.81
2022-08-01T03:00:03.773Z,101371.91
2022-08-01T03:03:11.113Z,101369.47
2022-08-01T03:06:19.563Z,101373.19
2022-08-01T03:09:25.917Z,101374.19
2022-08-01T03:12:35.286Z,101379.31
2022-08-01T03:15:42.341Z,101382.34
2022-08-01T03:18:47.794Z,101386.72
2022-08-01T03:21:54.465Z,101391.09
2022-08-01T03:25:01.821Z,101392.81
2022-08-01T03:28:09.791Z,101389.38
2022-08-01T03:31:16.184Z,101396.41
2022-08-01T03:34:22.330Z,101400.16
2022-08-01T03:37:36.802Z,101405.63
2022-08-01T03:40:47.396Z,101404.59
2022-08-01T03:44:00.806Z,101405.28
2022-08-01T03:47:10.698Z,101414.25
2022-08-01T03:50:18.743Z,101410.03
2022-08-01T03:53:31.088Z,101413.31
2022-08-01T03:56:36.671Z,101414.31
2022-08-01T03:59:41.925Z,101412.47
2022-08-01T04:02:47.390Z,101412.47
2022-08-01T04:05:51.634Z,101416.03
2022-08-01T04:08:57.701Z,101434.69
2022-08-01T04:12:02.287Z,101431.09
2022-08-01T04:15:16.180Z,101425.94
2022-08-01T04:18:20.205Z,101432.28
2022-08-01T04:21:29.775Z,101430.31
2022-08-01T04:24:37.472Z,101428.59
2022-08-01T04:27:50.427Z,101425.72
2022-08-01T04:31:02.138Z,101437.31
2022-08-01T04:34:08.778Z,101449.88
2022-08-01T04:37:15.064Z,101446.44
2022-08-01T04:40:22.887Z,101454.56
2022-08-01T04:43:26.739Z,101450.81
2022-08-01T04:46:32.044Z,101462.63
2022-08-01T04:49:44.433Z,101462.63
2022-08-01T04:52:53.203Z,101466.25
2022-08-01T04:55:58.380Z,101467.16
2022-08-01T04:59:20.023Z,101467.16
2022-08-01T05:02:24.122Z,101468.25
2022-08-01T05:05:27.868Z,101465.84
2022-08-01T05:08:31.515Z,101470.25
2022-08-01T05:11:36.566Z,101470.44
2022-08-01T05:14:40.439Z,101475.66
2022-08-01T05:17:44.360Z,101470.44
2022-08-01T05:20:48.400Z,101483.97
2022-08-01T05:23:52.095Z,101477.59
2022-08-01T05:26:57.610Z,101482.75
2022-08-01T05:30:01.270Z,101500.22
2022-08-01T05:33:04.972Z,101502.72
2022-08-01T05:36:09.871Z,101505.59
2022-08-01T05:39:13.754Z,101512.63
2022-08-01T05:42:18.844Z,101520.88
2022-08-01T05:45:22.615Z,101519.00
2022-08-01T05:48:26.705Z,101518.00
2022-08-01T05:51:30.384Z,101521.34
2022-08-01T05:54:34.147Z,101525.88
2022-08-01T05:57:39.243Z,101522.00
2022-08-01T06:00:44.351Z,101529.28
2022-08-01T06:03:48.443Z,101538.31
2022-08-01T06:06:52.187Z,101541.69
2022-08-01T06:09:55.809Z,101547.22
2022-08-01T06:13:03.981Z,101545.81
2022-08-01T06:16:07.942Z,101546.25
2022-08-01T06:19:11.699Z,101559.25
2022-08-01T06:22:15.320Z,101560.00
2022-08-01T06:25:21.158Z,101568.53
2022-08-01T06:28:26.661Z,101571.88
2022-08-01T06:31:33.547Z,101574.28
2022-08-01T06:34:37.816Z,101576.34
2022-08-01T06:37:41.448Z,101582.06
2022-08-01T06:40:45.202Z,101586.22
2022-08-01T06:43:50.293Z,101588.22
2022-08-01T06:46:53.905Z,101592.66
2022-08-01T06:49:57.582Z,101591.00
2022-08-01T06:53:01.291Z,101588.94
2022-08-01T06:56:06.639Z,101587.31
2022-08-01T06:59:11.832Z,101584.25
2022-08-01T07:02:15.517Z,101594.81
2022-08-01T07:05:20.673Z,101592.09
2022-08-01T07:08:24.396Z,101594.69
2022-08-01T07:11:28.061Z,101588.94
2022-08-01T07:14:33.101Z,101588.84
2022-08-01T07:17:40.937Z,101592.41
2022-08-01T07:20:51.863Z,101596.13
2022-08-01T07:23:56.713Z,101595.72
2022-08-01T07:27:00.340Z,101602.53
2022-08-01T07:30:26.067Z,101598.75
2022-08-01T07:33:48.700Z,101603.66
2022-08-01T07:36:53.801Z,101609.41
2022-08-01T07:39:57.439Z,101610.72
2022-08-01T07:43:01.060Z,101630.22
2022-08-01T07:46:06.870Z,101633.38
2022-08-01T07:49:10.679Z,101632.56
2022-08-01T07:52:14.375Z,101635.81
2022-08-01T07:55:18.077Z,101635.81
2022-08-01T07:58:21.775Z,101646.59
2022-08-01T08:01:27.838Z,101647.03
2022-08-01T08:04:31.549Z,101653.31
2022-08-01T08:07:35.476Z,101646.16
2022-08-01T08:10:39.308Z,101642.75
2022-08-01T08:13:45.007Z,101654.72
2022-08-01T08:16:50.016Z,101653.44
2022-08-01T08:19:53.676Z,101656.59
2022-08-01T08:22:58.910Z,101655.81
2022-08-01T08:26:02.660Z,101660.44
2022-08-01T08:29:06.355Z,101660.41
2022-08-01T08:32:11.736Z,101653.81
2022-08-01T08:35:20.126Z,101664.63
2022-08-01T08:38:29.918Z,101664.03
2022-08-01T08:41:37.933Z,101668.50
2022-08-01T08:44:44.572Z,101664.03
2022-08-01T08:47:51.681Z,101681.91
2022-08-01T08:50:58.535Z,101684.13
2022-08-01T08:54:06.299Z,101688.19
2022-08-01T08:57:11.631Z,101687.69
2022-08-01T09:00:17.411Z,101693.25
2022-08-01T09:03:22.506Z,101686.34
2022-08-01T09:06:26.832Z,101685.38
2022-08-01T09:09:31.304Z,101687.78
2022-08-01T09:12:36.079Z,101686.09
2022-08-01T09:15:46.100Z,101687.44
2022-08-01T09:18:53.489Z,101699.28
2022-08-01T09:22:02.830Z,101702.16
2022-08-01T09:25:10.705Z,101694.59
2022-08-01T09:28:14.298Z,101704.38
2022-08-01T09:31:21.298Z,101717.41
2022-08-01T09:34:31.489Z,101713.75
2022-08-01T09:37:37.306Z,101716.09
2022-08-01T09:40:53.343Z,101719.81
2022-08-01T09:43:57.170Z,101723.94
2022-08-01T09:47:07.690Z,101729.53
2022-08-01T09:50:13.698Z,101737.63
2022-08-01T09:53:24.456Z,101724.50
2022-08-01T09:56:43.552Z,101725.75
2022-08-01T10:00:00.610Z,101735.34
2022-08-01T10:03:24.029Z,101732.50
2022-08-01T10:06:29.184Z,101725.72
2022-08-01T10:09:40.772Z,101731.69
2022-08-01T10:12:45.992Z,101734.44
2022-08-01T10:15:52.954Z,101733.03
2022-08-01T10:18:59.108Z,101741.13
2022-08-01T10:22:06.896Z,101736.19
2022-08-01T10:25:14.001Z,101734.97
2022-08-01T10:28:24.267Z,101731.41
2022-08-01T10:31:32.085Z,101735.44
2022-08-01T10:34:37.477Z,101743.78
2022-08-01T10:37:52.038Z,101737.81
2022-08-01T10:40:59.231Z,101740.28
2022-08-01T10:44:04.101Z,101751.31
2022-08-01T10:47:14.676Z,101755.53
2022-08-01T10:50:30.723Z,101753.88
2022-08-01T10:53:42.991Z,101750.00
2022-08-01T10:56:51.589Z,101755.34
2022-08-01T10:59:59.280Z,101759.66
2022-08-01T11:03:08.835Z,101751.25
2022-08-01T11:06:19.723Z,101751.78
2022-08-01T11:09:37.021Z,101756.78
2022-08-01T11:12:43.918Z,101751.69
2022-08-01T11:15:49.911Z,101761.34
2022-08-01T11:18:54.718Z,101750.75
2022-08-01T11:22:04.934Z,101757.91
2022-08-01T11:25:10.130Z,101757.91
2022-08-01T11:28:30.137Z,101751.63
2022-08-01T11:31:38.172Z,101753.72
2022-08-01T11:34:58.039Z,101754.34
2022-08-01T11:38:28.410Z,101752.78
2022-08-01T11:41:39.077Z,101754.72
2022-08-01T11:44:52.428Z,101755.97
2022-08-01T11:47:57.042Z,101754.09
2022-08-01T11:51:02.282Z,101751.25
2022-08-01T11:54:06.523Z,101748.97
2022-08-01T11:57:14.991Z,101750.22
2022-08-01T12:00:20.781Z,101766.19
2022-08-01T12:03:33.450Z,101778.63
2022-08-01T12:06:37.998Z,101766.91
2022-08-01T12:09:45.398Z,101769.81
2022-08-01T12:12:52.917Z,101772.06
2022-08-01T12:15:57.318Z,101775.22
2022-08-01T12:19:01.594Z,101779.00
2022-08-01T12:22:11.415Z,101768.84
2022-08-01T12:25:17.162Z,101770.66
2022-08-01T12:28:22.659Z,101773.09
2022-08-01T12:31:34.858Z,101768.16
2022-08-01T12:34:39.109Z,101762.56
2022-08-01T12:37:45.848Z,101754.66
2022-08-01T12:40:53.396Z,101769.59
2022-08-01T12:44:01.377Z,101778.00
2022-08-01T12:47:08.844Z,101770.03
2022-08-01T12:50:17.024Z,101770.63
2022-08-01T12:53:22.675Z,101775.97
2022-08-01T12:56:35.204Z,101780.63
2022-08-01T12:59:41.407Z,101775.78
2022-08-01T13:02:46.788Z,101769.16
2022-08-01T13:05:53.288Z,101767.31
2022-08-01T13:08:57.056Z,101779.84
2022-08-01T13:12:10.937Z,101769.09
2022-08-01T13:15:33.159Z,101770.59
2022-08-01T13:18:38.268Z,101778.19
2022-08-01T13:21:55.451Z,101780.44
2022-08-01T13:25:14.220Z,101789.03
2022-08-01T13:28:21.789Z,101786.75
2022-08-01T13:31:35.647Z,101789.28
2022-08-01T13:34:39.814Z,101787.47
2022-08-01T13:37:44.399Z,101797.78
2022-08-01T13:40:48.500Z,101796.84
2022-08-01T13:43:58.769Z,101794.88
2022-08-01T13:47:14.822Z,101795.88
2022-08-01T13:50:20.326Z,101800.53
2022-08-01T13:53:24.033Z,101793.88
2022-08-01T13:56:29.597Z,101791.75
2022-08-01T13:59:33.722Z,101801.22
2022-08-01T14:02:38.958Z,101796.50
2022-08-01T14:05:43.224Z,101792.81
2022-08-01T14:08:47.596Z,101797.34
2022-08-01T14:11:51.350Z,101792.84
2022-08-01T14:14:55.768Z,101803.84
2022-08-01T14:18:01.658Z,101788.44
2022-08-01T14:21:05.983Z,101794.50
2022-08-01T14:24:10.742Z,101800.00
2022-08-01T14:27:14.433Z,101803.56
2022-08-01T14:30:18.047Z,101803.28
2022-08-01T14:33:23.251Z,101792.09
2022-08-01T14:36:30.686Z,101786.88
2022-08-01T14:39:35.134Z,101785.78
2022-08-01T14:42:39.332Z,101793.19
2022-08-01T14:45:42.943Z,101789.94
2022-08-01T14:48:47.965Z,101798.84
2022-08-01T14:51:51.620Z,101802.56
2022-08-01T14:54:55.272Z,101802.28
2022-08-01T14:57:58.869Z,101802.66
2022-08-01T15:01:02.950Z,101804.50
2022-08-01T15:04:09.875Z,101810.56
2022-08-01T15:07:14.092Z,101808.50
2022-08-01T15:10:17.758Z,101808.00
2022-08-01T15:13:22.117Z,101798.06
2022-08-01T15:16:26.718Z,101801.84
2022-08-01T15:19:31.854Z,101800.19
2022-08-01T15:22:36.088Z,101799.25
2022-08-01T15:25:41.199Z,101800.84
2022-08-01T15:28:45.795Z,101816.00
2022-08-01T15:31:49.604Z,101803.19
2022-08-01T15:34:55.144Z,101808.44
2022-08-01T15:37:58.806Z,101815.94
2022-08-01T15:41:02.928Z,101811.97
2022-08-01T15:44:06.663Z,101812.22
2022-08-01T15:47:11.934Z,101818.72
2022-08-01T15:50:17.002Z,101821.31
2022-08-01T15:53:20.753Z,101815.72
2022-08-01T15:56:24.946Z,101819.44
2022-08-01T15:59:29.691Z,101828.69
2022-08-01T16:02:33.420Z,101818.75
2022-08-01T16:05:43.392Z,101819.50
2022-08-01T16:08:47.328Z,101831.25
2022-08-01T16:11:51.328Z,101823.22
2022-08-01T16:14:55.004Z,101826.53
2022-08-01T16:18:01.996Z,101833.13
2022-08-01T16:21:07.919Z,101832.97
2022-08-01T16:24:11.520Z,101833.28
2022-08-01T16:27:15.230Z,101834.00
2022-08-01T16:30:18.926Z,101833.56
2022-08-01T16:33:45.743Z,101835.59
2022-08-01T16:36:50.156Z,101844.34
2022-08-01T16:39:53.798Z,101847.56
2022-08-01T16:43:00.086Z,101833.50
2022-08-01T16:46:03.764Z,101841.19
2022-08-01T16:49:07.774Z,101834.28
2022-08-01T16:52:12.990Z,101829.22
2022-08-01T16:55:16.992Z,101832.63
2022-08-01T16:58:27.996Z,101843.34
2022-08-01T17:01:59.950Z,101843.72
2022-08-01T17:04:56.777Z,101832.41
2022-08-01T17:08:01.904Z,101827.66
2022-08-01T17:11:05.856Z,101823.88
2022-08-01T17:14:09.595Z,101829.91
2022-08-01T17:17:13.653Z,101831.53
2022-08-01T17:20:17.326Z,101843.66
2022-08-01T17:23:22.453Z,101839.09
2022-08-01T17:26:26.234Z,101847.88
2022-08-01T17:29:43.264Z,101846.63
2022-08-01T17:32:49.032Z,101848.47
2022-08-01T17:35:52.688Z,101842.81
2022-08-01T17:38:59.183Z,101843.28
2022-08-01T17:42:02.788Z,101846.75
2022-08-01T17:45:27.405Z,101840.28
2022-08-01T17:48:31.472Z,101847.06
2022-08-01T17:51:35.111Z,101849.66
2022-08-01T17:54:40.131Z,101859.16
2022-08-01T17:57:43.778Z,101853.38
2022-08-01T18:00:47.459Z,101852.00
2022-08-01T18:03:51.163Z,101845.84
2022-08-01T18:06:58.121Z,101865.66
2022-08-01T18:10:04.215Z,101864.19
2022-08-01T18:13:16.656Z,101874.66
2022-08-01T18:16:20.664Z,101870.63
2022-08-01T18:19:24.458Z,101860.03
2022-08-01T18:22:31.282Z,101864.59
2022-08-01T18:25:38.617Z,101868.69
2022-08-01T18:28:46.462Z,101870.66
2022-08-01T18:31:51.479Z,101865.16
2022-08-01T18:34:55.167Z,101862.13
2022-08-01T18:37:59.244Z,101863.25
2022-08-01T18:41:10.168Z,101866.41
2022-08-01T18:44:15.778Z,101867.53
2022-08-01T18:47:19.554Z,101873.06
2022-08-01T18:50:24.342Z,101873.53
2022-08-01T18:53:28.427Z,101869.50
2022-08-01T18:56:33.548Z,101862.16
2022-08-01T18:59:37.712Z,101865.44
2022-08-01T19:02:57.887Z,101871.78
2022-08-01T19:06:01.660Z,101874.88
2022-08-01T19:09:08.581Z,101882.31
2022-08-01T19:12:14.284Z,101879.47
2022-08-01T19:15:38.132Z,101888.75
2022-08-01T19:18:41.884Z,101891.69
2022-08-01T19:21:45.726Z,101903.19
2022-08-01T19:24:49.475Z,101897.41
2022-08-01T19:27:57.574Z,101905.41
2022-08-01T19:31:03.520Z,101908.34
2022-08-01T19:34:09.283Z,101920.38
2022-08-01T19:37:13.738Z,101917.13
2022-08-01T19:40:27.789Z,101923.56
2022-08-01T19:43:40.489Z,101930.69
2022-08-01T19:46:46.989Z,101928.28
2022-08-01T19:49:50.661Z,101925.81
2022-08-01T19:52:57.635Z,101937.53
2022-08-01T19:56:04.826Z,101935.13
2022-08-01T19:59:10.939Z,101936.25
2022-08-01T20:02:20.069Z,101930.00
2022-08-01T20:05:25.929Z,101933.78
2022-08-01T20:08:32.323Z,101928.53
2022-08-01T20:11:36.904Z,101919.97
2022-08-01T20:14:44.614Z,101920.97
2022-08-01T20:17:48.317Z,101922.09
2022-08-01T20:20:54.424Z,101934.63
2022-08-01T20:24:02.980Z,101931.22
2022-08-01T20:27:08.535Z,101922.69
2022-08-01T20:30:14.748Z,101930.97
2022-08-01T20:33:20.399Z,101935.53
2022-08-01T20:36:26.374Z,101945.34
2022-08-01T20:39:32.139Z,101944.63
2022-08-01T20:42:39.175Z,101949.88
2022-08-01T20:45:47.285Z,101954.44
2022-08-01T20:48:54.180Z,101949.34
2022-08-01T20:51:58.467Z,101951.19
2022-08-01T20:55:02.157Z,101951.31
2022-08-01T20:58:06.624Z,101949.72
2022-08-01T21:01:16.614Z,101952.44
2022-08-01T21:04:54.284Z,101950.91
2022-08-01T21:08:06.063Z,101947.63
2022-08-01T21:11:20.853Z,101945.97
2022-08-01T21:14:45.202Z,101937.31
2022-08-01T21:17:59.406Z,101923.34
2022-08-01T21:21:10.166Z,101920.03
2022-08-01T21:24:19.133Z,101916.75
2022-08-01T21:27:33.497Z,101923.94
2022-08-01T21:30:38.470Z,101922.41
2022-08-01T21:33:57.104Z,101933.91
2022-08-01T21:37:10.079Z,101919.94
2022-08-01T21:40:15.020Z,101925.25
2022-08-01T21:43:19.370Z,101932.38
2022-08-01T21:46:23.300Z,101932.50
2022-08-01T21:49:29.191Z,101935.25
2022-08-01T21:52:44.818Z,101930.25
2022-08-01T21:56:10.956Z,101933.91
2022-08-01T21:59:29.940Z,101934.94
2022-08-01T22:02:39.901Z,101937.66
2022-08-01T22:05:51.570Z,101936.84
2022-08-01T22:09:04.343Z,101941.44
2022-08-01T22:12:11.709Z,101945.91
2022-08-01T22:15:24.565Z,101945.97
2022-08-01T22:18:29.040Z,101953.88
2022-08-01T22:21:35.180Z,101957.38
2022-08-01T22:24:39.908Z,101955.72
2022-08-01T22:28:06.415Z,101953.19
2022-08-01T22:31:08.658Z,101954.94
2022-08-01T22:34:13.491Z,101948.00
2022-08-01T22:37:18.501Z,101954.22
2022-08-01T22:40:51.033Z,101954.41
2022-08-01T22:44:01.654Z,101954.44
2022-08-01T22:47:14.392Z,101949.16
2022-08-01T22:50:34.357Z,101949.31
2022-08-01T22:53:55.942Z,101947.75
2022-08-01T22:57:08.260Z,101947.78
2022-08-01T23:00:14.475Z,101935.75
2022-08-01T23:03:27.797Z,101942.06
2022-08-01T23:06:41.303Z,101939.59
2022-08-01T23:09:54.918Z,101940.69
2022-08-01T23:13:02.405Z,101945.28
2022-08-01T23:16:06.843Z,101948.00
2022-08-01T23:19:11.436Z,101948.78
2022-08-01T23:22:16.913Z,101953.97
2022-08-01T23:25:22.045Z,101953.38
2022-08-01T23:28:27.120Z,101949.03
2022-08-01T23:31:55.613Z,101956.19
2022-08-01T23:34:55.168Z,101951.00
2022-08-01T23:38:02.175Z,101956.28
2022-08-01T23:41:14.924Z,101948.44
2022-08-01T23:44:18.621Z,101945.78
2022-08-01T23:47:22.312Z,101934.38
2022-08-01T23:50:26.896Z,101926.50
2022-08-01T23:53:32.270Z,101928.19
2022-08-01T23:56:37.630Z,101923.91
2022-08-01T23:59:53.087Z,101927.50
